Eeklo - AZ Alma Heliport

EBEA · Oost-Vlaanderen, Flanders, 比利时

METAR的历史 EBEA · Eeklo - AZ Alma Heliport

下面你可以看到过去几天的METARs。 选择年份以浏览从2007年开始的旧METAR。

2024年7月15日

时间 代码 天气 温度 能见度 天花板 METAR/SPECI
02:55
V
17 °C 10 km+ - 170° 170° 7 kt METAR EHFS 150055Z AUTO 17007KT 9999 NSC 17/14 Q1012
02:25
V
17 °C 10 km+ - 170° 170° 7 kt METAR EHFS 150025Z AUTO 17007KT 9999 NSC 17/13 Q1012
01:55
V
17 °C 10 km+ - 180° 180° 6 kt METAR EHFS 142355Z AUTO 18006KT 9999 NSC 17/13 Q1012
01:25
V
17 °C 10 km+ - 180° 180° 5 kt METAR EHFS 142325Z AUTO 18005KT 9999 NSC 17/13 Q1012
00:55
V
17 °C 10 km+ - 200° 200° 6 kt METAR EHFS 142255Z AUTO 20006KT 9999 NSC 17/12 Q1012
00:25
V
17 °C 10 km+ - 180° 180° 6 kt METAR EHFS 142225Z AUTO 18006KT 9999 NSC 17/13 Q1012

2024年7月14日

时间 代码 天气 温度 能见度 天花板 METAR/SPECI
23:55
V
18 °C 10 km+ - 190° 190° 5 kt METAR EHFS 142155Z AUTO 19005KT 9999 NSC 18/13 Q1013
23:25
V
18 °C 10 km+ - 190° 190° 5 kt METAR EHFS 142125Z AUTO 19005KT 9999 NSC 18/13 Q1013
22:55
V
18 °C 10 km+ - 220° 220° 7 kt METAR EHFS 142055Z AUTO 22007KT 9999 NCD 18/13 Q1012
22:25
V
18 °C 10 km+ - 230° 230° 8 kt METAR EHFS 142025Z AUTO 23008KT 9999 NCD 18/14 Q1013
21:55
V
18 °C 10 km+ - 240° 240° 7 kt METAR EHFS 141955Z AUTO 24007KT 9999 NCD 18/14 Q1012
21:25
V
18 °C 10 km+ - 250° 250° 7 kt METAR EHFS 141925Z AUTO 25007KT 9999 NCD 18/14 Q1012
20:55
V
19 °C 10 km+ - 260° 260° 7 kt METAR EHFS 141855Z AUTO 26007KT 9999 NCD 19/14 Q1012
20:25
V
19 °C 10 km+ - 260° 260° 9 kt METAR EHFS 141825Z AUTO 26009KT 9999 NCD 19/13 Q1012
19:55
V
19 °C 10 km+ - 250° 250° 8 kt METAR EHFS 141755Z AUTO 25008KT 9999 NSC 19/13 Q1012
19:25
V
19 °C 10 km+ - 250° 250° 10 kt METAR EHFS 141725Z AUTO 25010KT 9999 NSC 19/13 Q1012
18:55
V
19 °C 10 km+ - 250° 250° 10 kt METAR EHFS 141655Z AUTO 25010KT 9999 NSC 19/13 Q1012
18:25
V
19 °C 10 km+ - 250° 250° 12 kt METAR EHFS 141625Z AUTO 25012KT 9999 NSC 19/13 Q1012
17:55
V
19 °C 10 km+ - 250° 250° 12 kt METAR EHFS 141555Z AUTO 25012KT 9999 NSC 19/13 Q1012
17:25
V
19 °C 10 km+ - 250° 250° 11 kt METAR EHFS 141525Z AUTO 25011KT 9999 NSC 19/13 Q1012
16:55
V
19 °C 10 km+ - 250° 250° 13 kt METAR EHFS 141455Z AUTO 25013KT 9999 NSC 19/13 Q1012
16:25
V
19 °C 10 km+ - 260° 260° 12 kt METAR EHFS 141425Z AUTO 26012KT 9999 NSC 19/13 Q1012
15:55
V
19 °C 10 km+ - 260° 260° 12 kt METAR EHFS 141355Z AUTO 26012KT 230V290 9999 NSC 19/13 Q1012
15:25
V
20 °C 10 km+ - 260° 260° 12 kt METAR EHFS 141325Z AUTO 26012KT 230V290 9999 NSC 20/13 Q1012
14:55
V
20 °C 10 km+ - 260° 260° 14 kt METAR EHFS 141255Z AUTO 26014KT 9999 NSC 20/14 Q1012
14:25
V
19 °C 10 km+ - 260° 260° 14 kt METAR EHFS 141225Z AUTO 26014KT 9999 NSC 19/13 Q1012
13:55
V
19 °C 10 km+ - 260° 260° 14 kt METAR EHFS 141155Z AUTO 26014KT 230V290 9999 NSC 19/13 Q1012
13:25
V
19 °C 10 km+ - 260° 260° 14 kt METAR EHFS 141125Z AUTO 26014KT 9999 NCD 19/14 Q1012
12:55
V
18 °C 10 km+ - 250° 250° 16 kt METAR EHFS 141055Z AUTO 25016KT 9999 NCD 18/13 Q1012
12:25
V
19 °C 10 km+ - 250° 250° 16 kt METAR EHFS 141025Z AUTO 25016KT 9999 NCD 19/14 Q1012
11:55
V
18 °C 10 km+ - 250° 250° 16 kt METAR EHFS 140955Z AUTO 25016KT 9999 FEW025/// 18/14 Q1012
11:25
V
18 °C 10 km+ - 240° 240° 15 kt METAR EHFS 140925Z AUTO 24015KT 9999 FEW020/// SCT024/// 18/14 Q1012
10:55
V
18 °C 10 km+ - 240° 240° 14 kt METAR EHFS 140855Z AUTO 24014KT 9999 FEW017/// 18/13 Q1012
10:25
V
18 °C 10 km+ - 230° 230° 13 kt METAR EHFS 140825Z AUTO 23013KT 9999 NCD 18/14 Q1012
09:55
V
17 °C 10 km+ - 230° 230° 13 kt METAR EHFS 140755Z AUTO 23013KT 9999 NCD 17/14 Q1012
09:25
V
17 °C 10 km+ - 220° 220° 13 kt METAR EHFS 140725Z AUTO 22013KT 210V270 9999 NCD 17/14 Q1012
08:55
V
16 °C 10 km+ - 220° 220° 13 kt METAR EHFS 140655Z AUTO 22013KT 9999 NCD 16/14 Q1012
08:25
V
16 °C 10 km+ - 220° 220° 12 kt METAR EHFS 140625Z AUTO 22012KT 9999 NCD 16/13 Q1012
07:55
V
15 °C 10 km+ - 220° 220° 11 kt METAR EHFS 140555Z AUTO 22011KT 9999 NCD 15/13 Q1012
07:25
V
14 °C 9 km - 220° 220° 12 kt METAR EHFS 140525Z AUTO 22012KT 9000 NCD 14/12 Q1012
06:55
V
14 °C 10 km+ - 220° 220° 12 kt METAR EHFS 140455Z AUTO 22012KT 9999 NCD 14/12 Q1012
06:25
V
14 °C 10 km+ - 210° 210° 14 kt METAR EHFS 140425Z AUTO 21014KT 9999 NCD 14/12 Q1012
05:55
V
14 °C 10 km+ - 210° 210° 14 kt METAR EHFS 140355Z AUTO 21014KT 9999 NSC 14/12 Q1012
05:25
V
14 °C 10 km+ - 210° 210° 12 kt METAR EHFS 140325Z AUTO 21012KT 9999 NSC 14/12 Q1011
04:55
V
14 °C 10 km+ - 210° 210° 13 kt METAR EHFS 140255Z AUTO 21013KT 9999 NCD 14/12 Q1012
04:25
V
14 °C 10 km+ - 190° 190° 13 kt METAR EHFS 140225Z AUTO 19013KT 9999 NCD 14/12 Q1012
03:55
V
14 °C 10 km+ - 200° 200° 13 kt METAR EHFS 140155Z AUTO 20013KT 9999 NCD 14/12 Q1012
03:25
V
14 °C 10 km+ - 210° 210° 12 kt METAR EHFS 140125Z AUTO 21012KT 9999 NCD 14/12 Q1012
02:55
V
14 °C 10 km+ - 210° 210° 13 kt METAR EHFS 140055Z AUTO 21013KT 9999 NCD 14/12 Q1012
02:25
V
15 °C 10 km+ - 200° 200° 12 kt METAR EHFS 140025Z AUTO 20012KT 9999 NCD 15/12 Q1012
01:55
V
15 °C 10 km+ - 190° 190° 12 kt METAR EHFS 132355Z AUTO 19012KT 9999 NCD 15/13 Q1012
01:25
V
15 °C 10 km+ - 200° 200° 10 kt METAR EHFS 132325Z AUTO 20010KT 9999 NCD 15/13 Q1012
00:55
V
15 °C 10 km+ - 200° 200° 9 kt METAR EHFS 132255Z AUTO 20009KT 9999 NSC 15/12 Q1012
00:25
V
15 °C 10 km+ - 200° 200° 9 kt METAR EHFS 132225Z AUTO 20009KT 9999 NCD 15/12 Q1012

2024年7月13日

时间 代码 天气 温度 能见度 天花板 METAR/SPECI
23:55
V
16 °C 10 km+ - 200° 200° 8 kt METAR EHFS 132155Z AUTO 20008KT 9999 NCD 16/13 Q1013
23:25
V
16 °C 10 km+ - 200° 200° 10 kt METAR EHFS 132125Z AUTO 20010KT 9999 NCD 16/13 Q1013
22:55
V
16 °C 10 km+ - 210° 210° 9 kt METAR EHFS 132055Z AUTO 21009KT 9999 NCD 16/12 Q1013
22:25
V
16 °C 10 km+ - 220° 220° 10 kt METAR EHFS 132025Z AUTO 22010KT 190V250 9999 NCD 16/12 Q1013
21:55
V
16 °C 10 km+ - 250° 250° 13 kt METAR EHFS 131955Z AUTO 25013KT 9999 FEW018/// 16/13 Q1013
21:25
V
16 °C 10 km+ - 240° 240° 13 kt METAR EHFS 131925Z AUTO 24013KT 9999 NCD 16/12 Q1012
20:55
V
16 °C 10 km+ - 240° 240° 11 kt METAR EHFS 131855Z AUTO 24011KT 9999 NCD 16/12 Q1012
20:25
V
17 °C 10 km+ - 240° 240° 10 kt METAR EHFS 131825Z AUTO 24010KT 9999 NCD 17/12 Q1013
19:55
V
17 °C 10 km+ - 230° 230° 11 kt METAR EHFS 131755Z AUTO 23011KT 9999 FEW020/// 17/12 Q1013
19:25
V
17 °C 10 km+ - 240° 240° 11 kt METAR EHFS 131725Z AUTO 24011KT 9999 FEW022/// SCT027/// 17/12 Q1013
18:55
V
17 °C 10 km+ - 250° 250° 13 kt METAR EHFS 131655Z AUTO 25013KT 9999 FEW023/// 17/11 Q1013
18:25
V
17 °C 10 km+ - 250° 250° 17 kt METAR EHFS 131625Z AUTO 25017KT 210V290 9999 FEW024/// 17/11 Q1013
17:55
M
17 °C 10 km+ 2.400 ft 260° 260° 14 kt METAR EHFS 131555Z AUTO 26014KT 230V290 9999 BKN024/// OVC030/// 17/11 Q1013
17:25
V
17 °C 10 km+ - 260° 260° 16 kt METAR EHFS 131525Z AUTO 26016KT 9999 FEW025/// 17/10 Q1013
16:55
V
17 °C 10 km+ - 250° 250° 15 kt METAR EHFS 131455Z AUTO 25015KT 9999 SCT022/// 17/11 Q1013
16:25
V
17 °C 10 km+ - 250° 250° 17 kt METAR EHFS 131425Z AUTO 25017KT 9999 NSC 17/11 Q1013
15:55
V
16 °C 10 km+ - 250° 250° 17 kt METAR EHFS 131355Z AUTO 25017KT 9999 SCT023/// SCT028/// 16/11 Q1013
15:25
M
17 °C 10 km+ 2.300 ft 250° 250° 18 kt METAR EHFS 131325Z AUTO 25018KT 220V280 9999 BKN023/// BKN029/// 17/11 Q1013
14:55
V
16 °C 10 km+ - 240° 240° 18 kt METAR EHFS 131255Z AUTO 24018KT 9999 FEW022/// 16/11 Q1013
14:25
M
16 °C 10 km+ 2.200 ft 250° 250° 18 kt METAR EHFS 131225Z AUTO 25018KT 9999 BKN022/// OVC035/// 16/10 Q1013
13:55
M
15 °C 10 km+ 1.900 ft 250° 250° 17 kt METAR EHFS 131155Z AUTO 25017KT 9999 OVC019/// 15/11 Q1013
13:25
M
15 °C 10 km+ 1.900 ft 260° 260° 14 kt METAR EHFS 131125Z AUTO 26014KT 9999 SCT016/// BKN019/// OVC023/// 15/11 Q1013
12:55
M
15 °C 10 km+ 1.900 ft 260° 260° 14 kt METAR EHFS 131055Z AUTO 26014KT 9999 SCT015/// BKN019/// OVC023/// 15/12 Q1013
12:25
M
15 °C 10 km+ 1.600 ft 260° 260° 15 kt METAR EHFS 131025Z AUTO 26015KT 230V290 9999 FEW013/// BKN016/// OVC019/// 15/12 Q1012
11:55
M
16 °C 10 km+ 2.300 ft 260° 260° 16 kt METAR EHFS 130955Z AUTO 26016KT 9999 SCT015/// SCT019/// BKN023/// 16/12 Q1012
11:25
M
15 °C 10 km+ 2.100 ft 260° 260° 17 kt METAR EHFS 130925Z AUTO 26017KT 230V290 9999 FEW014/// SCT016/// BKN021/// 15/11 Q1012
10:55
M
15 °C 10 km+ 2.300 ft 260° 260° 14 kt METAR EHFS 130855Z AUTO 26014KT 230V290 9999 -DZ FEW012/// SCT018/// BKN023/// 15/12 Q1012
10:25
V
15 °C 10 km+ 3.200 ft 260° 260° 15 kt METAR EHFS 130825Z AUTO 26015KT 230V290 9999 FEW014/// BKN032/// OVC037/// 15/12 Q1012 REDZ
09:55
M
15 °C 10 km+ 1.600 ft 260° 260° 13 kt METAR EHFS 130755Z AUTO 26013KT 230V290 9999 DZ SCT013/// BKN016/// OVC022/// 15/12 Q1012
09:25
M
14 °C 10 km+ 1.500 ft 270° 270° 13 kt METAR EHFS 130725Z AUTO 27013KT 240V310 9999 DZ SCT010/// BKN015/// OVC021/// 14/12 Q1012
08:55
M
14 °C 10 km+ 1.600 ft 270° 270° 11 kt METAR EHFS 130655Z AUTO 27011KT 240V300 9999 DZRA FEW007/// BKN016/// OVC019/// 14/12 Q1012 REDZ
08:25
M
14 °C 10 km+ 1.100 ft 270° 270° 12 kt METAR EHFS 130625Z AUTO 27012KT 240V310 9999 -RA FEW009/// BKN011/// OVC015/// 14/12 Q1012 RERA REDZ
07:55
M
14 °C 10 km+ 1.400 ft 270° 270° 13 kt METAR EHFS 130555Z AUTO 27013KT 240V310 9999 -RA FEW009/// SCT011/// BKN014/// 14/13 Q1012 RERA REDZ
07:25
I
14 °C 9 km 900 ft 260° 260° 14 kt METAR EHFS 130525Z AUTO 26014KT 9000 +DZRA SCT007/// SCT008/// BKN009/// 14/13 Q1012
06:55
M
14 °C 10 km+ 1.600 ft 260° 260° 15 kt METAR EHFS 130455Z AUTO 26015KT 230V290 9999 -DZ FEW007/// SCT014/// BKN016/// 14/13 Q1012 REDZ
06:25
I
14 °C 10 km+ 900 ft 260° 260° 16 kt METAR EHFS 130425Z AUTO 26016KT 9999 -DZ SCT007/// BKN009/// BKN013/// 14/13 Q1011 REDZ
05:55
M
14 °C 10 km+ 2.200 ft 270° 270° 14 kt METAR EHFS 130355Z AUTO 27014KT 240V310 9999 -DZ FEW009/// SCT018/// BKN022/// 14/13 Q1012
05:25
M
14 °C 10 km+ 1.700 ft 260° 260° 15 kt METAR EHFS 130325Z AUTO 26015KT 240V300 9999 -DZ FEW008/// SCT011/// BKN017/// 14/13 Q1012 REDZ
04:55
M
14 °C 10 km+ 1.100 ft 260° 260° 16 kt METAR EHFS 130255Z AUTO 26016KT 230V300 9999 DZ FEW008/// SCT009/// BKN011/// 14/13 Q1011
04:25
M
14 °C 10 km+ 1.200 ft 260° 260° 16 kt METAR EHFS 130225Z AUTO 26016KT 9999 -DZ FEW006/// SCT008/// BKN012/// 14/13 Q1012 REDZ
03:55
M
14 °C 10 km+ 1.000 ft 260° 260° 15 kt METAR EHFS 130155Z AUTO 26015KT 230V290 9999 DZ FEW008/// BKN010/// BKN013/// 14/12 Q1012
03:25
M
14 °C 10 km+ 2.200 ft 260° 260° 16 kt METAR EHFS 130125Z AUTO 26016KT 9999 FEW008/// SCT011/// OVC022/// 14/12 Q1012
02:55
M
14 °C 10 km+ 1.600 ft 260° 260° 15 kt METAR EHFS 130055Z AUTO 26015KT 240V310 9999 FEW011/// SCT013/// BKN016/// 14/12 Q1012 REDZ
02:25
M
14 °C 10 km+ 1.900 ft 270° 270° 11 kt METAR EHFS 130025Z AUTO 27011KT 240V310 9999 DZ FEW009/// SCT012/// BKN019/// 14/12 Q1013
01:55
M
14 °C 10 km+ 1.400 ft 270° 270° 11 kt METAR EHFS 122355Z AUTO 27011KT 230V310 9999 DZ SCT011/// BKN014/// BKN026/// 14/12 Q1013
01:25
M
14 °C 10 km+ 1.700 ft 270° 270° 11 kt METAR EHFS 122325Z AUTO 27011KT 9999 +DZRA FEW008/// SCT010/// BKN017/// 14/12 Q1013
00:55
M
14 °C 10 km+ 2.700 ft 270° 270° 12 kt METAR EHFS 122255Z AUTO 27012KT 240V300 9999 -DZ FEW009/// SCT024/// BKN027/// 14/12 Q1013 REDZ
00:25
M
14 °C 10 km+ 1.600 ft 280° 280° 12 kt METAR EHFS 122225Z AUTO 28012KT 250V310 9999 FEW011/// SCT014/// BKN016/// 14/12 Q1013 RERA

2024年7月12日

时间 代码 天气 温度 能见度 天花板 METAR/SPECI
23:55
M
14 °C 10 km+ 2.200 ft 280° 280° 12 kt METAR EHFS 122155Z AUTO 28012KT 250V310 9999 FEW014/// SCT016/// BKN022/// 14/12 Q1013 REDZ
23:25
M
14 °C 10 km+ 2.900 ft 290° 290° 10 kt METAR EHFS 122125Z AUTO 29010KT 260V330 9999 FEW020/// SCT025/// BKN029/// 14/12 Q1013
22:55
M
14 °C 10 km+ 1.500 ft 290° 290° 8 kt METAR EHFS 122055Z AUTO 29008KT 260V330 9999 FEW012/// BKN015/// BKN019/// 14/12 Q1014 REDZ
22:25
M
14 °C 10 km+ 1.500 ft 300° 300° 9 kt METAR EHFS 122025Z AUTO 30009KT 260V340 9999 -RA FEW013/// BKN015/// BKN021/// 14/12 Q1014
21:55
V
14 °C 10 km+ 3.800 ft 290° 290° 9 kt METAR EHFS 121955Z AUTO 29009KT 260V330 9999 FEW017/// SCT032/// OVC038/// 14/12 Q1013 REDZ
21:25
M
14 °C 10 km+ 2.100 ft 310° 310° 9 kt METAR EHFS 121925Z AUTO 31009KT 280V350 9999 -RADZ FEW011/// SCT016/// BKN021/// 14/13 Q1013
20:55
M
14 °C 10 km+ 2.500 ft 290° 290° 11 kt METAR EHFS 121855Z AUTO 29011KT 250V320 9999 FEW016/// BKN025/// BKN028/// 14/12 Q1013 REDZ
20:25
V
18 °C 10 km+ - 320° 320° 7 kt METAR EHFS 111825Z AUTO 32007KT 290V350 9999 NSC 18/11 Q1018
18:55
V
18 °C 10 km+ - 300° 300° 7 kt METAR EHFS 111655Z AUTO 30007KT 250V350 9999 NSC 18/11 Q1018
报告变更